createdAt,value
2023-03-26T00:03:11.389Z,71.01
2023-03-26T00:08:23.278Z,70.75
2023-03-26T00:13:28.767Z,70.59
2023-03-26T00:18:31.832Z,70.75
2023-03-26T00:23:35.524Z,71.11
2023-03-26T00:28:40.650Z,71.20
2023-03-26T00:33:46.167Z,71.71
2023-03-26T00:38:59.181Z,71.72
2023-03-26T00:44:24.274Z,71.37
2023-03-26T00:49:32.037Z,71.12
2023-03-26T00:55:16.190Z,71.05
2023-03-26T01:00:29.376Z,70.89
2023-03-26T01:05:48.758Z,70.84
2023-03-26T01:11:08.848Z,71.04
2023-03-26T01:16:25.008Z,71.43
2023-03-26T01:21:31.804Z,71.84
2023-03-26T01:26:40.000Z,72.11
2023-03-26T01:32:35.651Z,72.56
2023-03-26T01:38:39.983Z,72.91
2023-03-26T01:43:59.103Z,73.02
2023-03-26T01:49:13.641Z,73.02
2023-03-26T01:54:29.761Z,73.02
2023-03-26T02:00:18.605Z,72.98
2023-03-26T02:05:54.133Z,72.89
2023-03-26T02:11:04.562Z,72.77
2023-03-26T02:16:12.083Z,72.88
2023-03-26T02:21:23.827Z,72.94
2023-03-26T02:26:31.806Z,72.81
2023-03-26T02:31:53.538Z,72.80
2023-03-26T02:36:58.961Z,73.04
2023-03-26T02:42:02.450Z,73.14
2023-03-26T02:47:09.567Z,73.32
2023-03-26T02:52:56.644Z,73.33
2023-03-26T02:58:02.988Z,73.44
2023-03-26T03:03:26.200Z,73.40
2023-03-26T03:08:54.111Z,73.48
2023-03-26T03:14:26.418Z,73.62
2023-03-26T03:19:31.578Z,73.41
2023-03-26T03:24:34.076Z,73.41
2023-03-26T03:29:41.400Z,73.41
2023-03-26T03:35:04.653Z,73.33
2023-03-26T03:40:11.166Z,73.35
2023-03-26T03:45:19.552Z,73.39
2023-03-26T03:50:46.513Z,73.43
2023-03-26T03:56:19.327Z,73.45
2023-03-26T04:01:46.757Z,73.42
2023-03-26T04:07:09.706Z,73.32
2023-03-26T04:12:28.911Z,73.31
2023-03-26T04:17:56.479Z,73.40
2023-03-26T04:23:32.844Z,73.18
2023-03-26T04:28:59.563Z,72.94
2023-03-26T04:34:14.838Z,72.96
2023-03-26T04:39:44.899Z,73.07
2023-03-26T04:45:34.514Z,73.08
2023-03-26T04:50:40.313Z,73.11
2023-03-26T04:55:57.348Z,73.01
2023-03-26T05:01:24.554Z,73.00
2023-03-26T05:06:34.907Z,72.93
2023-03-26T05:11:48.380Z,72.92
2023-03-26T05:16:54.106Z,72.84
2023-03-26T05:21:59.628Z,72.89
2023-03-26T05:27:20.206Z,72.75
2023-03-26T05:32:25.447Z,72.49
2023-03-26T05:37:33.785Z,72.31
2023-03-26T05:42:43.433Z,72.02
2023-03-26T05:48:06.867Z,71.77
2023-03-26T05:53:09.688Z,71.31
2023-03-26T05:59:05.078Z,70.73
2023-03-26T06:04:37.158Z,70.40
2023-03-26T06:10:03.226Z,69.75
2023-03-26T06:15:18.228Z,69.21
2023-03-26T06:20:30.741Z,68.88
2023-03-26T06:25:54.096Z,68.17
2023-03-26T06:31:26.301Z,68.04
2023-03-26T06:37:28.106Z,68.06
2023-03-26T06:43:07.562Z,67.89
2023-03-26T06:48:43.563Z,67.60
2023-03-26T06:54:24.442Z,67.36
2023-03-26T06:59:46.448Z,67.34
2023-03-26T07:05:26.050Z,67.38
2023-03-26T07:11:10.070Z,67.55
2023-03-26T07:16:35.941Z,67.66
2023-03-26T07:22:09.506Z,66.94
2023-03-26T07:28:30.160Z,66.45
2023-03-26T07:34:19.677Z,65.73
2023-03-26T07:40:15.405Z,64.97
2023-03-26T07:45:50.606Z,64.21
2023-03-26T07:51:22.130Z,63.95
2023-03-26T07:56:49.069Z,62.70
2023-03-26T08:02:33.108Z,61.51
2023-03-26T08:08:37.824Z,61.01
2023-03-26T08:14:57.409Z,60.87
2023-03-26T08:20:38.825Z,61.16
2023-03-26T08:26:30.973Z,60.93
2023-03-26T08:31:44.590Z,60.04
2023-03-26T08:36:49.492Z,59.67
2023-03-26T08:43:11.812Z,60.10
2023-03-26T08:48:51.514Z,61.34
2023-03-26T08:54:49.630Z,61.75
2023-03-26T09:00:52.174Z,61.99
2023-03-26T09:06:27.418Z,61.87
2023-03-26T09:12:16.188Z,61.17
2023-03-26T09:17:51.421Z,59.73
2023-03-26T09:23:12.993Z,59.89
2023-03-26T09:28:38.267Z,60.64
2023-03-26T09:34:27.491Z,61.56
2023-03-26T09:39:37.939Z,63.06
2023-03-26T09:44:48.725Z,64.63
2023-03-26T09:50:34.405Z,65.36
2023-03-26T09:56:22.163Z,65.56
2023-03-26T10:01:49.592Z,65.84
2023-03-26T10:07:10.461Z,65.29
2023-03-26T10:12:41.464Z,64.62
2023-03-26T10:18:27.653Z,62.64
2023-03-26T10:24:08.093Z,60.90
2023-03-26T10:30:07.851Z,59.82
2023-03-26T10:35:32.061Z,59.97
2023-03-26T10:40:55.089Z,60.82
2023-03-26T10:47:06.912Z,61.35
2023-03-26T10:52:17.524Z,61.14
2023-03-26T10:57:52.666Z,61.43
2023-03-26T11:03:23.808Z,59.65
2023-03-26T11:08:56.922Z,59.40
2023-03-26T11:14:27.982Z,58.54
2023-03-26T11:19:48.555Z,57.50
2023-03-26T11:25:18.615Z,56.56
2023-03-26T11:30:46.253Z,56.03
2023-03-26T11:36:23.874Z,54.58
2023-03-26T11:41:31.178Z,54.21
2023-03-26T11:47:04.524Z,52.94
2023-03-26T11:52:12.256Z,52.81
2023-03-26T11:57:22.447Z,51.82
2023-03-26T12:02:32.569Z,50.11
2023-03-26T12:07:57.967Z,49.46
2023-03-26T12:13:26.993Z,49.25
2023-03-26T12:18:29.806Z,48.62
2023-03-26T12:23:38.822Z,48.73
2023-03-26T12:28:47.300Z,48.93
2023-03-26T12:34:16.193Z,48.61
2023-03-26T12:40:09.380Z,48.63
2023-03-26T12:45:29.726Z,49.29
2023-03-26T12:50:57.798Z,48.72
2023-03-26T12:56:12.672Z,48.71
2023-03-26T13:01:24.469Z,49.24
2023-03-26T13:07:48.364Z,50.03
2023-03-26T13:14:00.380Z,50.95
2023-03-26T13:19:11.033Z,51.04
2023-03-26T13:24:20.318Z,51.02
2023-03-26T13:29:32.127Z,50.85
2023-03-26T13:34:58.213Z,49.92
2023-03-26T13:40:17.189Z,50.18
2023-03-26T13:46:02.162Z,50.72
2023-03-26T13:51:09.864Z,51.16
2023-03-26T13:56:20.211Z,51.25
2023-03-26T14:01:41.315Z,50.96
2023-03-26T14:06:57.569Z,48.95
2023-03-26T14:12:44.714Z,48.92
2023-03-26T14:18:39.311Z,48.64
2023-03-26T14:24:24.915Z,49.44
2023-03-26T14:29:56.354Z,49.46
2023-03-26T14:35:05.801Z,48.68
2023-03-26T14:40:25.287Z,49.45
2023-03-26T14:46:14.363Z,50.30
2023-03-26T14:52:13.654Z,50.17
2023-03-26T14:57:37.864Z,49.78
2023-03-26T15:03:16.924Z,49.43
2023-03-26T15:09:21.977Z,49.20
2023-03-26T15:15:09.912Z,49.63
2023-03-26T15:20:49.800Z,49.10
2023-03-26T15:26:27.579Z,49.41
2023-03-26T15:32:17.152Z,49.85
2023-03-26T15:38:09.188Z,49.75
2023-03-26T15:43:22.517Z,48.94
2023-03-26T15:48:43.587Z,48.68
2023-03-26T15:54:22.765Z,48.52
2023-03-26T15:59:52.399Z,47.75
2023-03-26T16:05:03.246Z,48.16
2023-03-26T16:10:41.384Z,48.61
2023-03-26T16:15:53.276Z,49.09
2023-03-26T16:21:31.299Z,49.52
2023-03-26T16:27:05.409Z,50.23
2023-03-26T16:32:17.891Z,50.53
2023-03-26T16:37:37.106Z,50.88
2023-03-26T16:42:55.501Z,51.25
2023-03-26T16:48:23.814Z,51.75
2023-03-26T16:53:57.890Z,52.19
2023-03-26T16:59:40.778Z,52.76
2023-03-26T17:04:53.778Z,53.39
2023-03-26T17:10:15.284Z,53.85
2023-03-26T17:16:14.588Z,53.96
2023-03-26T17:21:25.184Z,54.40
2023-03-26T17:26:52.235Z,55.16
2023-03-26T17:32:11.626Z,55.66
2023-03-26T17:37:16.973Z,56.30
2023-03-26T17:43:04.853Z,56.85
2023-03-26T17:48:21.850Z,57.83
2023-03-26T17:53:34.580Z,57.69
2023-03-26T17:58:52.651Z,57.96
2023-03-26T18:04:03.723Z,58.45
2023-03-26T18:09:24.122Z,58.44
2023-03-26T18:15:36.392Z,58.75
2023-03-26T18:20:39.121Z,59.17
2023-03-26T18:25:56.739Z,59.31
2023-03-26T18:31:26.576Z,60.01
2023-03-26T18:36:32.348Z,61.39
2023-03-26T18:41:41.866Z,62.33
2023-03-26T18:46:47.098Z,62.94
2023-03-26T18:51:56.904Z,62.79
2023-03-26T18:57:15.479Z,62.68
2023-03-26T19:02:28.597Z,62.78
2023-03-26T19:07:35.952Z,63.02
2023-03-26T19:12:38.898Z,63.01
2023-03-26T19:17:56.751Z,62.66
2023-03-26T19:23:16.261Z,62.93
2023-03-26T19:28:53.390Z,64.08
2023-03-26T19:34:05.460Z,64.95
2023-03-26T19:39:13.108Z,65.41
2023-03-26T19:44:28.568Z,65.81
2023-03-26T19:49:58.519Z,66.35
2023-03-26T19:55:20.545Z,67.59
2023-03-26T20:00:22.889Z,68.41
2023-03-26T20:05:28.777Z,68.54
2023-03-26T20:10:33.960Z,68.77
2023-03-26T20:16:05.902Z,68.86
2023-03-26T20:21:14.461Z,68.49
2023-03-26T20:26:24.361Z,68.84
2023-03-26T20:31:28.255Z,70.64
2023-03-26T20:36:39.702Z,74.44
2023-03-26T20:41:48.312Z,75.76
2023-03-26T20:46:51.728Z,75.95
2023-03-26T20:51:54.184Z,76.08
2023-03-26T20:56:58.907Z,74.92
2023-03-26T21:02:08.645Z,74.83
2023-03-26T21:07:18.099Z,75.05
2023-03-26T21:12:30.451Z,75.70
2023-03-26T21:17:36.417Z,76.62
2023-03-26T21:23:12.733Z,76.58
2023-03-26T21:28:42.377Z,77.72
2023-03-26T21:33:49.467Z,77.99
2023-03-26T21:38:54.751Z,77.85
2023-03-26T21:44:02.551Z,78.17
2023-03-26T21:49:17.872Z,76.62
2023-03-26T21:54:33.109Z,77.30
2023-03-26T21:59:51.904Z,77.11
2023-03-26T22:05:01.128Z,76.54
2023-03-26T22:10:06.548Z,76.58
2023-03-26T22:15:15.049Z,76.99
2023-03-26T22:20:19.496Z,76.62
2023-03-26T22:25:23.451Z,76.19
2023-03-26T22:30:36.811Z,76.85
2023-03-26T22:35:41.988Z,77.67
2023-03-26T22:40:44.780Z,78.16
2023-03-26T22:45:50.769Z,78.52
2023-03-26T22:51:04.878Z,78.60
2023-03-26T22:56:15.265Z,78.97
2023-03-26T23:01:28.848Z,79.07
2023-03-26T23:06:37.087Z,79.40
2023-03-26T23:11:43.566Z,78.72
2023-03-26T23:17:01.698Z,78.65
2023-03-26T23:22:14.977Z,79.17
2023-03-26T23:27:18.056Z,79.24
2023-03-26T23:32:28.229Z,79.09
2023-03-26T23:37:38.566Z,78.84
2023-03-26T23:42:42.965Z,79.07
2023-03-26T23:47:50.677Z,79.52
2023-03-26T23:52:57.997Z,79.76
2023-03-26T23:58:00.614Z,78.98
